Palmas, Brazil
Current Conditions -  °F | °C
As of 2:00 PM on Thursday 30 Oct 2014 (Local Time) from SBPJ Reporting Station
Scattered Clouds Scattered Clouds  
Wind Chill: 93°   Ceiling: Unl
Heat Index: 96°   Visibility: 6mi
Dew Point: 66°   Wind: 7mph
Humidity: 41%   Direction: 320°NW
Pressure: 29.8"   Gusts: NA
Location:  10.21°S, 48.36°W
Report Text: SBPJ 301700Z 32006KT 9999 SCT030 FEW035TCU 34/19 Q1009
Loading
Personal Weather Stations






























Interactive Weather Map New forecast layout! Learn more

10-Day Weather Forecast

Advertisements
Track Severe Weather on mobile